sensor_id;sensor_type;location;lat;lon;timestamp;pressure;altitude;pressure_sealevel;temperature;humidity
14383;BME280;7275;50.328;8.720;2022-12-28T00:01:47;100413.66;;;9.55;48.59
14383;BME280;7275;50.328;8.720;2022-12-28T00:04:15;100408.38;;;9.55;48.47
14383;BME280;7275;50.328;8.720;2022-12-28T00:06:42;100412.78;;;9.56;48.56
14383;BME280;7275;50.328;8.720;2022-12-28T00:09:10;100395.19;;;9.57;48.53
14383;BME280;7275;50.328;8.720;2022-12-28T00:11:38;100411.88;;;9.57;48.86
14383;BME280;7275;50.328;8.720;2022-12-28T00:14:07;100404.00;;;9.56;48.97
14383;BME280;7275;50.328;8.720;2022-12-28T00:16:36;100404.88;;;9.56;48.47
14383;BME280;7275;50.328;8.720;2022-12-28T00:19:06;100391.66;;;9.56;48.58
14383;BME280;7275;50.328;8.720;2022-12-28T00:21:36;100393.38;;;9.59;48.94
14383;BME280;7275;50.328;8.720;2022-12-28T00:24:05;100382.88;;;9.56;48.70
14383;BME280;7275;50.328;8.720;2022-12-28T00:26:33;100380.19;;;9.57;49.08
14383;BME280;7275;50.328;8.720;2022-12-28T00:29:02;100378.41;;;9.59;49.17
14383;BME280;7275;50.328;8.720;2022-12-28T00:31:32;100381.09;;;9.56;49.03
14383;BME280;7275;50.328;8.720;2022-12-28T00:34:00;100357.34;;;9.56;48.87
14383;BME280;7275;50.328;8.720;2022-12-28T00:36:28;100368.84;;;9.54;49.32
14383;BME280;7275;50.328;8.720;2022-12-28T00:39:17;100361.91;;;9.50;49.28
14383;BME280;7275;50.328;8.720;2022-12-28T00:41:45;100349.63;;;9.49;49.23
14383;BME280;7275;50.328;8.720;2022-12-28T00:44:12;100341.75;;;9.46;49.26
14383;BME280;7275;50.328;8.720;2022-12-28T00:46:41;100339.13;;;9.46;49.37
14383;BME280;7275;50.328;8.720;2022-12-28T00:49:09;100326.84;;;9.45;49.34
14383;BME280;7275;50.328;8.720;2022-12-28T00:51:36;100318.06;;;9.43;49.43
14383;BME280;7275;50.328;8.720;2022-12-28T00:54:04;100309.31;;;9.42;48.96
14383;BME280;7275;50.328;8.720;2022-12-28T00:56:32;100297.00;;;9.41;49.19
14383;BME280;7275;50.328;8.720;2022-12-28T00:58:59;100289.09;;;9.41;49.26
14383;BME280;7275;50.328;8.720;2022-12-28T01:01:27;100297.94;;;9.39;49.40
14383;BME280;7275;50.328;8.720;2022-12-28T01:03:57;100285.63;;;9.39;48.93
14383;BME280;7275;50.328;8.720;2022-12-28T01:06:26;100277.69;;;9.39;49.37
14383;BME280;7275;50.328;8.720;2022-12-28T01:08:54;100280.38;;;9.38;49.07
14383;BME280;7275;50.328;8.720;2022-12-28T01:11:23;100286.53;;;9.38;49.17
14383;BME280;7275;50.328;8.720;2022-12-28T01:13:52;100299.69;;;9.40;49.24
14383;BME280;7275;50.328;8.720;2022-12-28T01:16:23;100283.84;;;9.40;49.54
14383;BME280;7275;50.328;8.720;2022-12-28T01:18:52;100286.50;;;9.40;49.79
14383;BME280;7275;50.328;8.720;2022-12-28T01:21:23;100281.16;;;9.41;49.63
14383;BME280;7275;50.328;8.720;2022-12-28T01:23:52;100268.84;;;9.42;49.53
14383;BME280;7275;50.328;8.720;2022-12-28T01:26:21;100264.44;;;9.42;49.31
14383;BME280;7275;50.328;8.720;2022-12-28T01:28:49;100280.25;;;9.44;49.71
14383;BME280;7275;50.328;8.720;2022-12-28T01:31:18;100257.38;;;9.44;49.28
14383;BME280;7275;50.328;8.720;2022-12-28T01:33:46;100258.25;;;9.43;49.51
14383;BME280;7275;50.328;8.720;2022-12-28T01:36:16;100255.59;;;9.45;49.44
14383;BME280;7275;50.328;8.720;2022-12-28T01:38:47;100261.78;;;9.44;49.42
14383;BME280;7275;50.328;8.720;2022-12-28T01:41:18;100249.56;;;9.40;49.49
14383;BME280;7275;50.328;8.720;2022-12-28T01:46:33;100246.97;;;9.37;49.98
14383;BME280;7275;50.328;8.720;2022-12-28T01:49:05;100251.41;;;9.36;49.95
14383;BME280;7275;50.328;8.720;2022-12-28T01:51:42;100247.03;;;9.35;49.97
14383;BME280;7275;50.328;8.720;2022-12-28T01:54:15;100242.63;;;9.36;49.62
14383;BME280;7275;50.328;8.720;2022-12-28T01:56:43;100230.31;;;9.35;49.94
14383;BME280;7275;50.328;8.720;2022-12-28T01:59:11;100242.66;;;9.34;49.76
14383;BME280;7275;50.328;8.720;2022-12-28T02:01:39;100222.44;;;9.33;49.96
14383;BME280;7275;50.328;8.720;2022-12-28T02:04:06;100223.31;;;9.34;49.65
14383;BME280;7275;50.328;8.720;2022-12-28T02:06:34;100211.84;;;9.35;49.82
14383;BME280;7275;50.328;8.720;2022-12-28T02:09:06;100220.59;;;9.37;49.84
14383;BME280;7275;50.328;8.720;2022-12-28T02:11:37;100225.03;;;9.36;49.85
14383;BME280;7275;50.328;8.720;2022-12-28T02:14:05;100217.09;;;9.36;50.00
14383;BME280;7275;50.328;8.720;2022-12-28T02:16:33;100203.91;;;9.36;50.01
14383;BME280;7275;50.328;8.720;2022-12-28T02:19:01;100203.88;;;9.38;49.82
14383;BME280;7275;50.328;8.720;2022-12-28T02:21:36;100209.09;;;9.39;49.92
14383;BME280;7275;50.328;8.720;2022-12-28T02:24:26;100216.13;;;9.40;50.34
14383;BME280;7275;50.328;8.720;2022-12-28T02:27:05;100226.63;;;9.42;49.94
14383;BME280;7275;50.328;8.720;2022-12-28T02:30:03;100216.13;;;9.40;49.97
14383;BME280;7275;50.328;8.720;2022-12-28T02:32:47;100210.84;;;9.40;50.27
14383;BME280;7275;50.328;8.720;2022-12-28T02:35:23;100209.00;;;9.44;50.22
14383;BME280;7275;50.328;8.720;2022-12-28T02:37:58;100190.47;;;9.45;50.25
14383;BME280;7275;50.328;8.720;2022-12-28T02:40:31;100182.50;;;9.48;49.98
14383;BME280;7275;50.328;8.720;2022-12-28T02:43:01;100174.53;;;9.50;49.98
14383;BME280;7275;50.328;8.720;2022-12-28T02:45:35;100177.13;;;9.53;50.32
14383;BME280;7275;50.328;8.720;2022-12-28T02:48:20;100182.41;;;9.51;50.27
14383;BME280;7275;50.328;8.720;2022-12-28T02:51:33;100172.69;;;9.53;50.11
14383;BME280;7275;50.328;8.720;2022-12-28T02:54:34;100173.50;;;9.55;50.39
14383;BME280;7275;50.328;8.720;2022-12-28T02:57:40;100174.38;;;9.56;49.97
14383;BME280;7275;50.328;8.720;2022-12-28T03:00:15;100169.84;;;9.61;50.04
14383;BME280;7275;50.328;8.720;2022-12-28T03:02:58;100165.31;;;9.66;50.26
14383;BME280;7275;50.328;8.720;2022-12-28T03:05:33;100166.97;;;9.70;50.31
14383;BME280;7275;50.328;8.720;2022-12-28T03:08:36;100166.97;;;9.70;49.87
14383;BME280;7275;50.328;8.720;2022-12-28T03:11:08;100168.72;;;9.71;50.12
14383;BME280;7275;50.328;8.720;2022-12-28T03:13:46;100166.00;;;9.73;50.07
14383;BME280;7275;50.328;8.720;2022-12-28T03:16:20;100162.50;;;9.74;50.18
14383;BME280;7275;50.328;8.720;2022-12-28T03:18:54;100155.41;;;9.76;50.31
14383;BME280;7275;50.328;8.720;2022-12-28T03:21:41;100154.53;;;9.75;50.06
14383;BME280;7275;50.328;8.720;2022-12-28T03:24:28;100146.66;;;9.74;50.02
14383;BME280;7275;50.328;8.720;2022-12-28T03:27:15;100151.94;;;9.72;50.24
14383;BME280;7275;50.328;8.720;2022-12-28T03:30:05;100145.00;;;9.70;50.19
14383;BME280;7275;50.328;8.720;2022-12-28T03:32:52;100134.38;;;9.71;50.28
14383;BME280;7275;50.328;8.720;2022-12-28T03:35:26;100128.25;;;9.71;50.13
14383;BME280;7275;50.328;8.720;2022-12-28T03:38:00;100127.38;;;9.70;50.10
14383;BME280;7275;50.328;8.720;2022-12-28T03:40:34;100119.50;;;9.68;50.12
14383;BME280;7275;50.328;8.720;2022-12-28T03:43:09;100116.03;;;9.66;50.18
14383;BME280;7275;50.328;8.720;2022-12-28T03:46:03;100119.66;;;9.62;50.40
14383;BME280;7275;50.328;8.720;2022-12-28T03:48:33;100111.75;;;9.62;50.42
14383;BME280;7275;50.328;8.720;2022-12-28T03:51:04;100097.69;;;9.62;50.54
14383;BME280;7275;50.328;8.720;2022-12-28T03:53:37;100094.16;;;9.63;50.57
14383;BME280;7275;50.328;8.720;2022-12-28T03:56:07;100091.50;;;9.63;50.42
14383;BME280;7275;50.328;8.720;2022-12-28T03:58:35;100089.75;;;9.63;50.79
14383;BME280;7275;50.328;8.720;2022-12-28T04:01:03;100075.63;;;9.64;50.39
14383;BME280;7275;50.328;8.720;2022-12-28T04:03:31;100080.84;;;9.66;50.74
14383;BME280;7275;50.328;8.720;2022-12-28T04:05:59;100096.66;;;9.68;50.41
14383;BME280;7275;50.328;8.720;2022-12-28T04:08:29;100079.91;;;9.68;50.66
14383;BME280;7275;50.328;8.720;2022-12-28T04:10:58;100073.72;;;9.70;50.59
14383;BME280;7275;50.328;8.720;2022-12-28T04:13:28;100076.38;;;9.70;50.73
14383;BME280;7275;50.328;8.720;2022-12-28T04:15:57;100071.00;;;9.73;50.85
14383;BME280;7275;50.328;8.720;2022-12-28T04:18:26;100064.84;;;9.72;50.70
14383;BME280;7275;50.328;8.720;2022-12-28T04:20:53;100063.06;;;9.73;50.89
14383;BME280;7275;50.328;8.720;2022-12-28T04:23:21;100053.38;;;9.73;50.94
14383;BME280;7275;50.328;8.720;2022-12-28T04:25:57;100065.63;;;9.76;50.63
14383;BME280;7275;50.328;8.720;2022-12-28T04:28:25;100058.59;;;9.76;50.68
14383;BME280;7275;50.328;8.720;2022-12-28T04:30:53;100057.66;;;9.77;50.49
14383;BME280;7275;50.328;8.720;2022-12-28T04:33:21;100048.84;;;9.78;50.96
14383;BME280;7275;50.328;8.720;2022-12-28T04:35:49;100034.66;;;9.81;50.90
14383;BME280;7275;50.328;8.720;2022-12-28T04:38:17;100032.00;;;9.82;50.47
14383;BME280;7275;50.328;8.720;2022-12-28T04:40:45;100020.56;;;9.82;50.95
14383;BME280;7275;50.328;8.720;2022-12-28T04:43:13;100024.09;;;9.82;50.91
14383;BME280;7275;50.328;8.720;2022-12-28T04:45:41;100030.22;;;9.83;50.87
14383;BME280;7275;50.328;8.720;2022-12-28T04:48:08;100010.84;;;9.84;50.90
14383;BME280;7275;50.328;8.720;2022-12-28T04:50:36;100025.75;;;9.85;51.00
14383;BME280;7275;50.328;8.720;2022-12-28T04:53:03;100019.56;;;9.86;51.03
14383;BME280;7275;50.328;8.720;2022-12-28T04:55:33;100015.13;;;9.88;50.99
14383;BME280;7275;50.328;8.720;2022-12-28T04:58:00;100021.22;;;9.90;50.73
14383;BME280;7275;50.328;8.720;2022-12-28T05:00:29;100021.13;;;9.93;50.95
14383;BME280;7275;50.328;8.720;2022-12-28T05:02:57;100019.31;;;9.95;50.95
14383;BME280;7275;50.328;8.720;2022-12-28T05:05:24;100012.16;;;9.98;50.62
14383;BME280;7275;50.328;8.720;2022-12-28T05:07:52;100023.47;;;10.02;50.86
14383;BME280;7275;50.328;8.720;2022-12-28T05:10:20;100026.94;;;10.04;50.64
14383;BME280;7275;50.328;8.720;2022-12-28T05:12:47;100019.91;;;10.04;50.51
14383;BME280;7275;50.328;8.720;2022-12-28T05:15:15;100017.19;;;10.07;51.02
14383;BME280;7275;50.328;8.720;2022-12-28T05:17:44;100017.97;;;10.11;50.63
14383;BME280;7275;50.328;8.720;2022-12-28T05:20:11;100013.53;;;10.10;50.86
14383;BME280;7275;50.328;8.720;2022-12-28T05:22:38;100011.81;;;10.10;50.84
14383;BME280;7275;50.328;8.720;2022-12-28T05:25:07;100004.75;;;10.11;50.85
14383;BME280;7275;50.328;8.720;2022-12-28T05:27:34;100001.19;;;10.12;50.84
14383;BME280;7275;50.328;8.720;2022-12-28T05:30:03;100006.44;;;10.13;50.70
14383;BME280;7275;50.328;8.720;2022-12-28T05:32:30;99998.47;;;10.15;50.71
14383;BME280;7275;50.328;8.720;2022-12-28T05:34:59;100000.16;;;10.17;50.86
14383;BME280;7275;50.328;8.720;2022-12-28T05:37:27;99998.41;;;10.18;50.66
14383;BME280;7275;50.328;8.720;2022-12-28T05:39:54;99992.19;;;10.19;50.99
14383;BME280;7275;50.328;8.720;2022-12-28T05:42:21;99984.19;;;10.22;50.96
14383;BME280;7275;50.328;8.720;2022-12-28T05:44:49;99979.72;;;10.22;51.02
14383;BME280;7275;50.328;8.720;2022-12-28T05:47:16;99978.84;;;10.23;51.02
14383;BME280;7275;50.328;8.720;2022-12-28T05:49:44;99967.31;;;10.26;50.68
14383;BME280;7275;50.328;8.720;2022-12-28T05:52:14;99965.50;;;10.26;50.93
14383;BME280;7275;50.328;8.720;2022-12-28T05:54:41;99959.28;;;10.29;50.89
14383;BME280;7275;50.328;8.720;2022-12-28T05:57:09;99953.09;;;10.30;51.02
14383;BME280;7275;50.328;8.720;2022-12-28T05:59:36;99954.78;;;10.32;50.74
14383;BME280;7275;50.328;8.720;2022-12-28T06:02:04;99947.75;;;10.31;50.69
14383;BME280;7275;50.328;8.720;2022-12-28T06:04:31;99939.75;;;10.33;50.66
14383;BME280;7275;50.328;8.720;2022-12-28T06:06:59;99941.50;;;10.34;50.77
14383;BME280;7275;50.328;8.720;2022-12-28T06:09:27;99941.50;;;10.34;50.79
14383;BME280;7275;50.328;8.720;2022-12-28T06:11:55;99941.44;;;10.35;51.10
14383;BME280;7275;50.328;8.720;2022-12-28T06:14:23;99941.38;;;10.37;50.81
14383;BME280;7275;50.328;8.720;2022-12-28T06:16:50;99936.97;;;10.37;51.01
14383;BME280;7275;50.328;8.720;2022-12-28T06:19:18;99925.50;;;10.38;50.99
14383;BME280;7275;50.328;8.720;2022-12-28T06:21:45;99928.97;;;10.40;50.71
14383;BME280;7275;50.328;8.720;2022-12-28T06:24:12;99941.25;;;10.41;50.97
14383;BME280;7275;50.328;8.720;2022-12-28T06:26:41;99933.25;;;10.43;50.59
14383;BME280;7275;50.328;8.720;2022-12-28T06:29:09;99927.97;;;10.43;51.09
14383;BME280;7275;50.328;8.720;2022-12-28T06:31:39;99914.88;;;10.40;50.65
14383;BME280;7275;50.328;8.720;2022-12-28T06:34:07;99920.91;;;10.43;50.69
14383;BME280;7275;50.328;8.720;2022-12-28T06:36:37;99908.56;;;10.44;50.77
14383;BME280;7275;50.328;8.720;2022-12-28T06:39:07;99898.06;;;10.42;51.16
14383;BME280;7275;50.328;8.720;2022-12-28T06:41:35;99900.63;;;10.44;51.11
14383;BME280;7275;50.328;8.720;2022-12-28T06:44:06;99902.38;;;10.45;50.74
14383;BME280;7275;50.328;8.720;2022-12-28T06:46:34;99895.28;;;10.45;50.78
14383;BME280;7275;50.328;8.720;2022-12-28T06:49:02;99896.09;;;10.48;51.22
14383;BME280;7275;50.328;8.720;2022-12-28T06:51:32;99899.63;;;10.48;50.80
14383;BME280;7275;50.328;8.720;2022-12-28T06:54:01;99891.63;;;10.50;51.02
14383;BME280;7275;50.328;8.720;2022-12-28T06:56:31;99891.59;;;10.51;51.25
14383;BME280;7275;50.328;8.720;2022-12-28T06:59:00;99881.88;;;10.52;51.23
14383;BME280;7275;50.328;8.720;2022-12-28T07:01:33;99879.13;;;10.55;51.33
14383;BME280;7275;50.328;8.720;2022-12-28T07:04:02;99883.50;;;10.56;50.87
14383;BME280;7275;50.328;8.720;2022-12-28T07:06:34;99873.72;;;10.58;51.26
14383;BME280;7275;50.328;8.720;2022-12-28T07:09:05;99875.41;;;10.60;51.07
14383;BME280;7275;50.328;8.720;2022-12-28T07:11:33;99877.03;;;10.64;51.12
14383;BME280;7275;50.328;8.720;2022-12-28T07:14:01;99887.50;;;10.67;51.18
14383;BME280;7275;50.328;8.720;2022-12-28T07:16:30;99865.44;;;10.68;51.18
14383;BME280;7275;50.328;8.720;2022-12-28T07:18:58;99868.94;;;10.69;51.24
14383;BME280;7275;50.328;8.720;2022-12-28T07:21:27;99871.53;;;10.70;51.29
14383;BME280;7275;50.328;8.720;2022-12-28T07:23:56;99870.56;;;10.73;51.10
14383;BME280;7275;50.328;8.720;2022-12-28T07:26:25;99869.59;;;10.75;51.36
14383;BME280;7275;50.328;8.720;2022-12-28T07:28:55;99873.03;;;10.77;51.50
14383;BME280;7275;50.328;8.720;2022-12-28T07:31:25;99875.63;;;10.79;51.21
14383;BME280;7275;50.328;8.720;2022-12-28T07:33:56;99864.16;;;10.80;51.49
14383;BME280;7275;50.328;8.720;2022-12-28T07:36:26;99864.88;;;10.83;51.16
14383;BME280;7275;50.328;8.720;2022-12-28T07:38:54;99869.28;;;10.84;51.27
14383;BME280;7275;50.328;8.720;2022-12-28T07:41:23;99871.78;;;10.87;51.45
14383;BME280;7275;50.328;8.720;2022-12-28T07:43:51;99872.56;;;10.91;51.34
14383;BME280;7275;50.328;8.720;2022-12-28T07:46:20;99875.91;;;10.96;51.28
14383;BME280;7275;50.328;8.720;2022-12-28T07:48:48;99872.16;;;11.01;51.59
14383;BME280;7275;50.328;8.720;2022-12-28T07:51:19;99871.19;;;11.04;51.56
14383;BME280;7275;50.328;8.720;2022-12-28T07:53:49;99866.66;;;11.07;51.38
14383;BME280;7275;50.328;8.720;2022-12-28T07:56:17;99853.31;;;11.10;51.35
14383;BME280;7275;50.328;8.720;2022-12-28T07:58:47;99851.41;;;11.14;51.38
14383;BME280;7275;50.328;8.720;2022-12-28T08:01:14;99852.97;;;11.19;51.49
14383;BME280;7275;50.328;8.720;2022-12-28T08:03:43;99845.84;;;11.21;51.63
14383;BME280;7275;50.328;8.720;2022-12-28T08:06:12;99841.28;;;11.25;51.19
14383;BME280;7275;50.328;8.720;2022-12-28T08:08:42;99837.75;;;11.26;51.12
14383;BME280;7275;50.328;8.720;2022-12-28T08:11:13;99828.88;;;11.27;51.40
14383;BME280;7275;50.328;8.720;2022-12-28T08:13:42;99829.66;;;11.29;51.49
14383;BME280;7275;50.328;8.720;2022-12-28T08:16:12;99828.69;;;11.32;51.51
14383;BME280;7275;50.328;8.720;2022-12-28T08:18:40;99836.56;;;11.33;51.33
14383;BME280;7275;50.328;8.720;2022-12-28T08:21:10;99828.63;;;11.33;51.44
14383;BME280;7275;50.328;8.720;2022-12-28T08:23:38;99838.31;;;11.34;51.44
14383;BME280;7275;50.328;8.720;2022-12-28T08:26:09;99838.25;;;11.36;51.52
14383;BME280;7275;50.328;8.720;2022-12-28T08:28:38;99831.97;;;11.38;51.51
14383;BME280;7275;50.328;8.720;2022-12-28T08:31:06;99832.78;;;11.40;51.29
14383;BME280;7275;50.328;8.720;2022-12-28T08:33:34;99823.88;;;11.43;51.56
14383;BME280;7275;50.328;8.720;2022-12-28T08:36:02;99839.56;;;11.47;51.45
14383;BME280;7275;50.328;8.720;2022-12-28T08:38:30;99823.44;;;11.53;51.72
14383;BME280;7275;50.328;8.720;2022-12-28T08:41:00;99829.47;;;11.57;51.56
14383;BME280;7275;50.328;8.720;2022-12-28T08:43:30;99829.38;;;11.60;51.59
14383;BME280;7275;50.328;8.720;2022-12-28T08:45:58;99827.47;;;11.63;51.58
14383;BME280;7275;50.328;8.720;2022-12-28T08:48:27;99844.03;;;11.68;51.85
14383;BME280;7275;50.328;8.720;2022-12-28T08:51:00;99823.63;;;11.72;51.84
14383;BME280;7275;50.328;8.720;2022-12-28T08:53:28;99823.44;;;11.76;51.69
14383;BME280;7275;50.328;8.720;2022-12-28T08:56:00;99824.09;;;11.81;51.73
14383;BME280;7275;50.328;8.720;2022-12-28T08:58:33;99823.97;;;11.84;51.65
14383;BME280;7275;50.328;8.720;2022-12-28T09:01:05;99808.03;;;11.86;51.49
14383;BME280;7275;50.328;8.720;2022-12-28T09:03:34;99819.41;;;11.88;51.69
14383;BME280;7275;50.328;8.720;2022-12-28T09:06:03;99822.94;;;11.88;51.60
14383;BME280;7275;50.328;8.720;2022-12-28T09:08:31;99823.72;;;11.90;51.46
14383;BME280;7275;50.328;8.720;2022-12-28T09:10:59;99828.06;;;11.93;51.36
14383;BME280;7275;50.328;8.720;2022-12-28T09:13:27;99820.94;;;11.93;51.48
14383;BME280;7275;50.328;8.720;2022-12-28T09:15:57;99830.56;;;11.96;51.65
14383;BME280;7275;50.328;8.720;2022-12-28T09:18:25;99834.94;;;11.97;51.36
14383;BME280;7275;50.328;8.720;2022-12-28T09:20:52;99830.50;;;11.97;51.35
14383;BME280;7275;50.328;8.720;2022-12-28T09:23:20;99835.75;;;11.99;51.45
14383;BME280;7275;50.328;8.720;2022-12-28T09:25:48;99824.13;;;12.01;51.56
14383;BME280;7275;50.328;8.720;2022-12-28T09:28:15;99821.44;;;12.03;51.44
14383;BME280;7275;50.328;8.720;2022-12-28T09:30:43;99822.25;;;12.05;51.70
14383;BME280;7275;50.328;8.720;2022-12-28T09:33:12;99827.41;;;12.08;51.68
14383;BME280;7275;50.328;8.720;2022-12-28T09:35:57;99809.66;;;12.10;51.60
14383;BME280;7275;50.328;8.720;2022-12-28T09:38:25;99830.59;;;12.16;51.41
14383;BME280;7275;50.328;8.720;2022-12-28T09:40:53;99818.81;;;12.23;51.54
14383;BME280;7275;50.328;8.720;2022-12-28T09:43:20;99819.50;;;12.28;51.64
14383;BME280;7275;50.328;8.720;2022-12-28T09:45:48;99809.50;;;12.35;51.61
14383;BME280;7275;50.328;8.720;2022-12-28T09:48:21;99806.59;;;12.41;51.56
14383;BME280;7275;50.328;8.720;2022-12-28T09:50:49;99817.84;;;12.46;51.38
14383;BME280;7275;50.328;8.720;2022-12-28T09:53:22;99809.56;;;12.53;51.33
14383;BME280;7275;50.328;8.720;2022-12-28T09:55:56;99832.22;;;12.60;51.36
14383;BME280;7275;50.328;8.720;2022-12-28T09:58:26;99805.44;;;12.66;51.32
14383;BME280;7275;50.328;8.720;2022-12-28T10:00:56;99823.72;;;12.72;51.41
14383;BME280;7275;50.328;8.720;2022-12-28T10:03:30;99815.66;;;12.75;51.06
14383;BME280;7275;50.328;8.720;2022-12-28T10:05:59;99803.09;;;12.79;50.98
14383;BME280;7275;50.328;8.720;2022-12-28T10:08:27;99817.94;;;12.83;51.05
14383;BME280;7275;50.328;8.720;2022-12-28T10:10:58;99811.53;;;12.89;50.88
14383;BME280;7275;50.328;8.720;2022-12-28T10:13:32;99809.59;;;12.92;51.04
14383;BME280;7275;50.328;8.720;2022-12-28T10:16:21;99824.44;;;12.96;50.98
14383;BME280;7275;50.328;8.720;2022-12-28T10:18:50;99800.47;;;12.98;50.93
14383;BME280;7275;50.328;8.720;2022-12-28T10:21:20;99804.78;;;13.00;51.04
14383;BME280;7275;50.328;8.720;2022-12-28T10:23:58;99799.34;;;13.03;50.85
14383;BME280;7275;50.328;8.720;2022-12-28T10:26:45;99814.31;;;13.06;50.80
14383;BME280;7275;50.328;8.720;2022-12-28T10:29:18;99809.72;;;13.09;50.90
14383;BME280;7275;50.328;8.720;2022-12-28T10:31:56;99817.69;;;13.09;50.97
14383;BME280;7275;50.328;8.720;2022-12-28T10:34:26;99799.03;;;13.11;50.68
14383;BME280;7275;50.328;8.720;2022-12-28T10:37:03;99797.16;;;13.13;50.83
14383;BME280;7275;50.328;8.720;2022-12-28T10:39:46;99794.31;;;13.17;50.91
14383;BME280;7275;50.328;8.720;2022-12-28T10:42:20;99793.94;;;13.25;50.79
14383;BME280;7275;50.328;8.720;2022-12-28T10:44:49;99790.00;;;13.33;50.94
14383;BME280;7275;50.328;8.720;2022-12-28T10:47:28;99806.06;;;13.49;50.95
14383;BME280;7275;50.328;8.720;2022-12-28T10:49:57;99781.97;;;13.71;50.82
14383;BME280;7275;50.328;8.720;2022-12-28T10:52:55;99788.69;;;13.96;50.95
14383;BME280;7275;50.328;8.720;2022-12-28T10:55:26;99781.19;;;14.21;50.84
14383;BME280;7275;50.328;8.720;2022-12-28T10:57:54;99776.84;;;14.37;50.31
14383;BME280;7275;50.328;8.720;2022-12-28T11:00:41;99776.94;;;14.53;50.22
14383;BME280;7275;50.328;8.720;2022-12-28T11:03:18;99771.13;;;14.62;49.97
14383;BME280;7275;50.328;8.720;2022-12-28T11:05:47;99786.84;;;14.67;49.85
14383;BME280;7275;50.328;8.720;2022-12-28T11:08:22;99765.50;;;14.68;49.65
14383;BME280;7275;50.328;8.720;2022-12-28T11:10:55;99761.00;;;14.69;49.65
14383;BME280;7275;50.328;8.720;2022-12-28T11:13:23;99753.78;;;14.71;49.47
14383;BME280;7275;50.328;8.720;2022-12-28T11:15:52;99760.94;;;14.70;49.40
14383;BME280;7275;50.328;8.720;2022-12-28T11:18:20;99759.13;;;14.71;49.47
14383;BME280;7275;50.328;8.720;2022-12-28T11:20:51;99755.53;;;14.72;49.44
14383;BME280;7275;50.328;8.720;2022-12-28T11:23:21;99746.78;;;14.70;49.40
14383;BME280;7275;50.328;8.720;2022-12-28T11:25:49;99743.28;;;14.85;49.96
14383;BME280;7275;50.328;8.720;2022-12-28T11:28:19;99728.63;;;15.40;50.57
14383;BME280;7275;50.328;8.720;2022-12-28T11:30:49;99746.25;;;15.89;49.94
14383;BME280;7275;50.328;8.720;2022-12-28T11:33:24;99718.44;;;16.23;49.09
14383;BME280;7275;50.328;8.720;2022-12-28T11:35:55;99710.47;;;16.37;48.78
14383;BME280;7275;50.328;8.720;2022-12-28T11:38:36;99704.00;;;16.41;48.33
14383;BME280;7275;50.328;8.720;2022-12-28T11:41:04;99689.41;;;16.33;47.84
14383;BME280;7275;50.328;8.720;2022-12-28T11:43:48;99692.06;;;16.19;47.62
14383;BME280;7275;50.328;8.720;2022-12-28T11:46:38;99687.91;;;15.99;47.71
14383;BME280;7275;50.328;8.720;2022-12-28T11:49:26;99687.16;;;15.81;47.61
14383;BME280;7275;50.328;8.720;2022-12-28T11:55:32;99683.91;;;15.47;47.91
14383;BME280;7275;50.328;8.720;2022-12-28T11:58:42;99675.47;;;15.39;48.17
14383;BME280;7275;50.328;8.720;2022-12-28T12:01:39;99657.25;;;15.47;48.58
14383;BME280;7275;50.328;8.720;2022-12-28T12:10:30;99663.38;;;16.22;48.10
14383;BME280;7275;50.328;8.720;2022-12-28T12:13:12;99662.34;;;16.25;47.76
14383;BME280;7275;50.328;8.720;2022-12-28T12:15:51;99650.06;;;16.36;47.90
14383;BME280;7275;50.328;8.720;2022-12-28T12:18:21;99650.16;;;16.49;47.52
14383;BME280;7275;50.328;8.720;2022-12-28T12:20:58;99646.63;;;16.48;46.75
14383;BME280;7275;50.328;8.720;2022-12-28T12:23:39;99640.03;;;16.40;46.93
14383;BME280;7275;50.328;8.720;2022-12-28T12:26:17;99660.06;;;16.33;46.88
14383;BME280;7275;50.328;8.720;2022-12-28T12:28:49;99641.94;;;16.24;46.82
14383;BME280;7275;50.328;8.720;2022-12-28T12:31:24;99647.81;;;16.15;46.92
14383;BME280;7275;50.328;8.720;2022-12-28T12:33:58;99649.16;;;16.08;47.05
14383;BME280;7275;50.328;8.720;2022-12-28T12:40:03;99640.56;;;15.88;47.33
14383;BME280;7275;50.328;8.720;2022-12-28T12:42:43;99641.78;;;15.83;47.26
14383;BME280;7275;50.328;8.720;2022-12-28T12:45:20;99626.31;;;15.74;47.38
14383;BME280;7275;50.328;8.720;2022-12-28T12:48:11;99626.88;;;15.65;47.40
14383;BME280;7275;50.328;8.720;2022-12-28T12:50:52;99627.69;;;15.51;47.40
14383;BME280;7275;50.328;8.720;2022-12-28T12:53:32;99635.19;;;15.45;47.80
14383;BME280;7275;50.328;8.720;2022-12-28T12:56:24;99626.53;;;15.40;47.82
14383;BME280;7275;50.328;8.720;2022-12-28T12:59:03;99634.84;;;15.35;47.83
14383;BME280;7275;50.328;8.720;2022-12-28T13:01:41;99621.78;;;15.31;47.87
14383;BME280;7275;50.328;8.720;2022-12-28T13:04:17;99626.13;;;15.32;48.08
14383;BME280;7275;50.328;8.720;2022-12-28T13:06:54;99606.47;;;15.34;48.28
14383;BME280;7275;50.328;8.720;2022-12-28T13:09:25;99609.47;;;15.44;48.47
14383;BME280;7275;50.328;8.720;2022-12-28T13:11:53;99611.03;;;15.48;48.25
14383;BME280;7275;50.328;8.720;2022-12-28T13:14:22;99602.94;;;15.49;48.14
14383;BME280;7275;50.328;8.720;2022-12-28T13:16:53;99613.78;;;15.46;48.24
14383;BME280;7275;50.328;8.720;2022-12-28T13:19:24;99608.88;;;15.39;48.06
14383;BME280;7275;50.328;8.720;2022-12-28T13:21:52;99610.25;;;15.30;48.12
14383;BME280;7275;50.328;8.720;2022-12-28T13:24:22;99609.06;;;15.20;48.21
14383;BME280;7275;50.328;8.720;2022-12-28T13:26:51;99616.66;;;15.12;48.30
14383;BME280;7275;50.328;8.720;2022-12-28T13:29:20;99608.25;;;15.04;48.37
14383;BME280;7275;50.328;8.720;2022-12-28T13:31:49;99602.41;;;14.97;48.72
14383;BME280;7275;50.328;8.720;2022-12-28T13:34:21;99609.88;;;14.91;48.64
14383;BME280;7275;50.328;8.720;2022-12-28T13:36:50;99605.81;;;14.84;48.63
14383;BME280;7275;50.328;8.720;2022-12-28T13:39:20;99603.41;;;14.79;48.80
14383;BME280;7275;50.328;8.720;2022-12-28T13:41:50;99609.03;;;14.75;48.90
14383;BME280;7275;50.328;8.720;2022-12-28T13:44:26;99608.50;;;14.68;49.00
14383;BME280;7275;50.328;8.720;2022-12-28T13:47:01;99593.91;;;14.60;49.25
14383;BME280;7275;50.328;8.720;2022-12-28T13:49:35;99595.69;;;14.59;49.14
14383;BME280;7275;50.328;8.720;2022-12-28T13:52:07;99599.38;;;14.57;49.28